createdAt,value
2018-09-18T00:00:29.617Z,0
2018-09-18T00:01:39.788Z,0
2018-09-18T00:02:49.613Z,0
2018-09-18T00:03:59.686Z,0
2018-09-18T00:05:09.485Z,0
2018-09-18T00:06:19.553Z,0
2018-09-18T00:07:29.532Z,0
2018-09-18T00:08:39.610Z,0
2018-09-18T00:09:49.749Z,0
2018-09-18T00:10:59.824Z,0
2018-09-18T00:12:09.632Z,0
2018-09-18T00:13:19.690Z,0
2018-09-18T00:14:29.788Z,0
2018-09-18T00:15:39.867Z,0
2018-09-18T00:16:49.948Z,0
2018-09-18T00:18:00.036Z,0
2018-09-18T00:19:10.115Z,0
2018-09-18T00:20:19.940Z,0
2018-09-18T00:21:30.007Z,0
2018-09-18T00:22:40.199Z,0
2018-09-18T00:23:50.265Z,0
2018-09-18T00:25:02.235Z,0
2018-09-18T00:26:12.039Z,0
2018-09-18T00:27:22.110Z,0
2018-09-18T00:28:32.242Z,0
2018-09-18T00:29:42.061Z,0
2018-09-18T00:30:52.150Z,0
2018-09-18T00:32:02.212Z,0
2018-09-18T00:33:12.287Z,0
2018-09-18T00:34:22.094Z,0
2018-09-18T00:35:32.164Z,0
2018-09-18T00:36:42.292Z,0
2018-09-18T00:37:52.131Z,0
2018-09-18T00:39:02.240Z,0
2018-09-18T00:40:12.308Z,0
2018-09-18T00:41:22.384Z,0
2018-09-18T00:42:32.253Z,0
2018-09-18T00:43:42.063Z,0
2018-09-18T00:44:52.125Z,0
2018-09-18T00:46:03.000Z,0
2018-09-18T00:47:12.799Z,0
2018-09-18T00:48:22.884Z,0
2018-09-18T00:49:32.962Z,0
2018-09-18T00:50:43.030Z,0
2018-09-18T00:51:53.106Z,0
2018-09-18T00:53:03.204Z,0
2018-09-18T00:54:13.347Z,0
2018-09-18T00:55:23.466Z,0
2018-09-18T00:56:33.546Z,0
2018-09-18T00:57:43.724Z,0
2018-09-18T00:58:53.810Z,0
2018-09-18T01:00:05.405Z,0
2018-09-18T01:01:15.472Z,0
2018-09-18T01:02:25.035Z,0
2018-09-18T01:03:35.101Z,0
2018-09-18T01:04:44.927Z,0
2018-09-18T01:05:55.060Z,0
2018-09-18T01:07:05.115Z,0
2018-09-18T01:08:15.187Z,0
2018-09-18T01:09:24.998Z,0
2018-09-18T01:10:35.082Z,0
2018-09-18T01:11:45.168Z,0
2018-09-18T01:12:54.986Z,0
2018-09-18T01:14:05.996Z,0
2018-09-18T01:15:15.828Z,0
2018-09-18T01:16:25.925Z,0
2018-09-18T01:17:36.016Z,0
2018-09-18T01:18:46.089Z,0
2018-09-18T01:19:56.154Z,0
2018-09-18T01:21:05.707Z,0
2018-09-18T01:22:15.520Z,0
2018-09-18T01:23:25.619Z,0
2018-09-18T01:24:35.433Z,0
2018-09-18T01:25:45.253Z,0
2018-09-18T01:26:55.048Z,0
2018-09-18T01:28:05.217Z,0
2018-09-18T01:29:15.387Z,0
2018-09-18T01:30:25.430Z,0
2018-09-18T01:31:35.494Z,0
2018-09-18T01:32:45.566Z,0
2018-09-18T01:33:55.653Z,0
2018-09-18T01:35:05.520Z,0
2018-09-18T01:36:15.600Z,0
2018-09-18T01:37:25.654Z,0
2018-09-18T01:38:35.734Z,0
2018-09-18T01:39:45.557Z,0
2018-09-18T01:40:55.642Z,0
2018-09-18T01:42:06.179Z,0
2018-09-18T01:43:16.270Z,0
2018-09-18T01:44:26.337Z,0
2018-09-18T01:45:36.418Z,0
2018-09-18T01:46:46.482Z,0
2018-09-18T01:47:56.563Z,0
2018-09-18T01:49:07.855Z,0
2018-09-18T01:50:17.675Z,0
2018-09-18T01:51:27.492Z,0
2018-09-18T01:52:37.614Z,0
2018-09-18T01:53:47.677Z,0
2018-09-18T01:54:57.763Z,0
2018-09-18T01:56:08.604Z,0
2018-09-18T01:57:18.414Z,0
2018-09-18T01:58:28.365Z,0
2018-09-18T01:59:38.424Z,0
2018-09-18T02:00:47.977Z,0
2018-09-18T02:01:58.066Z,0
2018-09-18T02:03:08.145Z,0
2018-09-18T02:04:18.240Z,0
2018-09-18T02:05:28.298Z,0
2018-09-18T02:06:38.370Z,0
2018-09-18T02:07:48.445Z,0
2018-09-18T02:08:58.565Z,0
2018-09-18T02:10:10.470Z,0
2018-09-18T02:11:20.558Z,0
2018-09-18T02:12:30.098Z,0
2018-09-18T02:13:39.892Z,0
2018-09-18T02:14:49.986Z,0
2018-09-18T02:16:00.062Z,0
2018-09-18T02:17:09.877Z,0
2018-09-18T02:18:20.394Z,0
2018-09-18T02:19:30.465Z,0
2018-09-18T02:20:40.291Z,0
2018-09-18T02:21:50.140Z,0
2018-09-18T02:22:59.968Z,0
2018-09-18T02:24:10.132Z,0
2018-09-18T02:25:20.196Z,0
2018-09-18T02:26:30.260Z,0
2018-09-18T02:27:40.048Z,0
2018-09-18T02:28:49.868Z,0
2018-09-18T02:29:59.945Z,0
2018-09-18T02:31:10.032Z,0
2018-09-18T02:32:19.849Z,0
2018-09-18T02:33:29.963Z,0
2018-09-18T02:34:40.032Z,0
2018-09-18T02:35:50.134Z,0
2018-09-18T02:37:02.979Z,0
2018-09-18T02:38:13.064Z,0
2018-09-18T02:39:22.824Z,0
2018-09-18T02:40:32.915Z,0
2018-09-18T02:41:43.004Z,0
2018-09-18T02:42:53.074Z,0
2018-09-18T02:44:04.438Z,0
2018-09-18T02:45:14.537Z,0
2018-09-18T02:46:24.599Z,0
2018-09-18T02:47:34.664Z,0
2018-09-18T02:48:44.728Z,0
2018-09-18T02:49:54.815Z,0
2018-09-18T02:51:04.673Z,0
2018-09-18T02:52:14.758Z,0
2018-09-18T02:53:24.890Z,0
2018-09-18T02:54:34.700Z,0
2018-09-18T02:55:44.787Z,0
2018-09-18T02:56:54.596Z,0
2018-09-18T02:58:04.149Z,0
2018-09-18T02:59:14.273Z,0
2018-09-18T03:00:24.088Z,0
2018-09-18T03:01:33.901Z,0
2018-09-18T03:02:44.013Z,0
2018-09-18T03:35:11.749Z,0
2018-09-18T03:36:21.564Z,0
2018-09-18T03:37:31.637Z,0
2018-09-18T03:38:41.444Z,0
2018-09-18T03:39:51.513Z,0
2018-09-18T03:41:01.295Z,0
2018-09-18T03:42:11.364Z,0
2018-09-18T03:43:21.183Z,0
2018-09-18T03:44:31.238Z,0
2018-09-18T03:45:41.318Z,0
2018-09-18T03:46:51.452Z,0
2018-09-18T03:48:01.521Z,0
2018-09-18T03:49:11.594Z,0
2018-09-18T03:50:21.135Z,0
2018-09-18T03:51:31.216Z,0
2018-09-18T03:52:41.327Z,0
2018-09-18T03:53:51.392Z,0
2018-09-18T03:55:00.952Z,0
2018-09-18T03:56:11.034Z,0
2018-09-18T03:57:20.860Z,0
2018-09-18T03:58:30.963Z,0
2018-09-18T03:59:41.089Z,0
2018-09-18T04:00:50.910Z,0
2018-09-18T04:02:00.978Z,0
2018-09-18T04:03:10.801Z,0
2018-09-18T04:04:20.928Z,0
2018-09-18T04:05:30.998Z,4
2018-09-18T04:06:40.553Z,0
2018-09-18T04:07:50.371Z,0
2018-09-18T04:09:03.348Z,4
2018-09-18T04:10:13.229Z,0
2018-09-18T04:11:23.300Z,4
2018-09-18T04:12:33.367Z,4
2018-09-18T04:13:43.455Z,4
2018-09-18T04:14:53.525Z,8
2018-09-18T04:16:03.728Z,8
2018-09-18T04:17:13.570Z,12
2018-09-18T04:18:23.532Z,12
2018-09-18T04:19:33.696Z,16
2018-09-18T04:20:43.788Z,20
2018-09-18T04:21:53.663Z,20
2018-09-18T04:23:03.472Z,24
2018-09-18T04:24:13.532Z,32
2018-09-18T04:25:23.594Z,36
2018-09-18T04:26:33.513Z,44
2018-09-18T04:27:43.660Z,52
2018-09-18T04:28:53.739Z,60
2018-09-18T04:30:03.555Z,72
2018-09-18T04:31:13.629Z,80
2018-09-18T04:32:23.712Z,92
2018-09-18T04:33:33.842Z,104
2018-09-18T04:34:43.920Z,120
2018-09-18T04:35:54.018Z,132
2018-09-18T04:37:04.793Z,148
2018-09-18T04:38:14.607Z,164
2018-09-18T04:39:24.777Z,180
2018-09-18T04:40:34.849Z,204
2018-09-18T04:41:44.661Z,224
2018-09-18T04:42:54.722Z,244
2018-09-18T04:44:04.644Z,268
2018-09-18T04:45:14.736Z,288
2018-09-18T04:46:24.811Z,316
2018-09-18T04:47:34.622Z,340
2018-09-18T04:48:44.693Z,368
2018-09-18T04:49:54.777Z,392
2018-09-18T04:51:06.358Z,424
2018-09-18T04:52:16.425Z,456
2018-09-18T04:53:26.518Z,484
2018-09-18T04:54:36.585Z,512
2018-09-18T04:55:46.654Z,544
2018-09-18T04:56:56.752Z,580
2018-09-18T04:58:06.815Z,608
2018-09-18T04:59:16.913Z,640
2018-09-18T05:00:26.992Z,672
2018-09-18T05:01:37.059Z,700
2018-09-18T05:02:47.197Z,728
2018-09-18T05:03:57.287Z,760
2018-09-18T05:05:08.021Z,796
2018-09-18T05:06:17.828Z,824
2018-09-18T05:07:27.650Z,852
2018-09-18T05:08:37.488Z,884
2018-09-18T05:09:47.568Z,912
2018-09-18T05:10:57.658Z,944
2018-09-18T05:12:07.997Z,972
2018-09-18T05:13:18.075Z,1000
2018-09-18T05:14:27.878Z,1028
2018-09-18T05:15:37.952Z,1068
2018-09-18T05:16:48.038Z,1192
2018-09-18T05:17:57.843Z,1224
2018-09-18T05:19:08.664Z,1172
2018-09-18T05:20:18.817Z,1168
2018-09-18T05:21:28.899Z,1200
2018-09-18T05:22:38.968Z,1220
2018-09-18T05:23:48.515Z,1272
2018-09-18T05:24:58.327Z,1332
2018-09-18T05:26:08.403Z,1344
2018-09-18T05:27:18.215Z,1340
2018-09-18T05:28:28.311Z,1408
2018-09-18T05:29:38.400Z,1504
2018-09-18T05:30:48.468Z,1444
2018-09-18T05:31:58.566Z,1508
2018-09-18T05:33:08.636Z,1496
2018-09-18T05:34:18.755Z,1588
2018-09-18T05:35:28.585Z,1832
2018-09-18T05:36:38.664Z,1980
2018-09-18T05:37:49.737Z,1880
2018-09-18T05:38:59.913Z,1712
2018-09-18T05:40:11.697Z,1648
2018-09-18T05:41:21.789Z,1760
2018-09-18T05:42:31.868Z,1788
2018-09-18T05:43:42.023Z,1684
2018-09-18T05:44:52.095Z,1784
2018-09-18T05:46:02.175Z,1732
2018-09-18T05:47:12.277Z,1748
2018-09-18T05:48:22.203Z,1776
2018-09-18T05:49:32.017Z,1804
2018-09-18T05:50:42.147Z,1820
2018-09-18T05:51:52.275Z,1848
2018-09-18T05:53:02.359Z,1868
2018-09-18T05:54:12.191Z,1888
2018-09-18T05:55:22.325Z,1916
2018-09-18T05:56:32.434Z,1928
2018-09-18T05:57:42.502Z,1948
2018-09-18T05:58:52.583Z,1976
2018-09-18T06:00:02.417Z,2000
2018-09-18T06:01:12.340Z,2024
2018-09-18T06:02:22.506Z,2044
2018-09-18T06:03:32.661Z,2016
2018-09-18T06:04:42.753Z,2040
2018-09-18T06:05:52.617Z,2064
2018-09-18T06:07:02.768Z,2084
2018-09-18T06:08:12.848Z,2100
2018-09-18T06:09:22.924Z,2124
2018-09-18T06:10:33.055Z,2148
2018-09-18T06:11:42.855Z,2172
2018-09-18T06:12:52.936Z,2196
2018-09-18T06:14:03.032Z,2212
2018-09-18T06:15:13.102Z,2240
2018-09-18T06:16:23.194Z,2256
2018-09-18T06:17:33.019Z,2280
2018-09-18T06:18:43.485Z,2300
2018-09-18T06:19:53.790Z,2320
2018-09-18T06:21:03.896Z,2340
2018-09-18T06:22:13.704Z,2356
2018-09-18T06:23:23.540Z,2376
2018-09-18T06:24:33.652Z,2392
2018-09-18T06:25:43.762Z,2408
2018-09-18T06:26:53.586Z,2424
2018-09-18T06:28:03.693Z,2444
2018-09-18T06:29:13.498Z,2464
2018-09-18T06:30:23.629Z,2480
2018-09-18T06:31:33.442Z,2496
2018-09-18T06:32:43.287Z,2508
2018-09-18T06:33:53.351Z,2528
2018-09-18T06:35:04.238Z,2540
2018-09-18T06:36:14.148Z,2556
2018-09-18T06:37:24.243Z,2576
2018-09-18T06:38:34.333Z,2596
2018-09-18T06:39:44.407Z,2612
2018-09-18T06:40:54.491Z,2620
2018-09-18T06:42:04.563Z,2640
2018-09-18T06:43:14.637Z,2656
2018-09-18T06:44:24.717Z,2664
2018-09-18T06:45:34.575Z,2680
2018-09-18T06:46:44.639Z,2692
2018-09-18T06:47:54.591Z,2712
2018-09-18T06:49:04.756Z,2724
2018-09-18T06:50:14.827Z,2744
2018-09-18T06:51:24.632Z,2756
2018-09-18T06:52:34.711Z,2776
2018-09-18T06:53:44.846Z,2796
2018-09-18T06:54:55.127Z,2812
2018-09-18T06:56:05.208Z,2824
2018-09-18T06:57:15.305Z,2840
2018-09-18T06:58:25.558Z,2876
2018-09-18T06:59:35.374Z,2892
2018-09-18T07:00:44.942Z,2896
2018-09-18T07:01:55.009Z,2916
2018-09-18T07:03:05.122Z,2940
2018-09-18T07:04:15.206Z,2952
2018-09-18T07:05:25.402Z,2972
2018-09-18T07:06:35.611Z,2984
2018-09-18T07:07:45.682Z,3004
2018-09-18T07:08:55.761Z,3020
2018-09-18T07:10:06.360Z,3044
2018-09-18T07:11:16.490Z,3052
2018-09-18T07:12:26.579Z,3076
2018-09-18T07:13:36.672Z,3092
2018-09-18T07:14:46.773Z,3120
2018-09-18T07:15:56.852Z,3136
2018-09-18T07:17:07.085Z,3152
2018-09-18T07:18:17.541Z,3168
2018-09-18T07:19:27.375Z,3188
2018-09-18T07:20:37.452Z,3212
2018-09-18T07:21:47.544Z,3228
2018-09-18T07:22:57.644Z,3252
2018-09-18T07:24:08.992Z,3384
2018-09-18T07:25:18.819Z,3404
2018-09-18T07:26:28.918Z,3384
2018-09-18T07:27:39.007Z,3332
2018-09-18T07:28:49.088Z,3352
2018-09-18T07:29:59.188Z,3364
2018-09-18T07:31:09.294Z,3388
2018-09-18T07:32:18.841Z,3408
2018-09-18T07:33:28.917Z,3428
2018-09-18T07:34:38.802Z,3440
2018-09-18T07:35:48.900Z,3472
2018-09-18T07:36:58.980Z,3488
2018-09-18T07:38:09.077Z,3508
2018-09-18T07:39:19.175Z,3520
2018-09-18T07:40:28.993Z,3536
2018-09-18T07:41:39.079Z,3560
2018-09-18T07:42:49.171Z,3580
2018-09-18T07:43:59.241Z,3596
2018-09-18T07:45:09.377Z,3612
2018-09-18T07:46:19.460Z,3612
2018-09-18T07:47:29.535Z,3648
2018-09-18T07:48:39.618Z,3660
2018-09-18T07:49:49.534Z,3676
2018-09-18T07:50:59.664Z,3692
2018-09-18T07:52:09.613Z,3716
2018-09-18T07:53:19.717Z,3728
2018-09-18T07:54:29.537Z,3752
2018-09-18T07:55:39.641Z,3768
2018-09-18T07:56:49.723Z,3780
2018-09-18T07:57:59.812Z,3808
2018-09-18T07:59:09.882Z,3824
2018-09-18T08:00:20.092Z,3840
2018-09-18T08:01:30.180Z,3856
2018-09-18T08:02:40.252Z,3876
2018-09-18T08:03:50.378Z,3892
2018-09-18T08:05:01.384Z,3908
2018-09-18T08:06:11.204Z,3916
2018-09-18T08:07:21.286Z,3940
2018-09-18T08:08:31.384Z,3956
2018-09-18T08:09:41.620Z,3960
2018-09-18T08:10:52.157Z,3972
2018-09-18T08:12:02.539Z,4004
2018-09-18T08:13:12.646Z,4020
2018-09-18T08:14:22.713Z,4032
2018-09-18T08:15:32.535Z,4048
2018-09-18T08:16:42.666Z,4056
2018-09-18T08:17:52.590Z,4092
2018-09-18T08:19:03.495Z,4112
2018-09-18T08:20:13.566Z,4124
2018-09-18T08:21:23.451Z,4132
2018-09-18T08:22:33.565Z,4148
2018-09-18T08:23:43.698Z,4148
2018-09-18T08:24:53.795Z,4196
2018-09-18T08:26:03.639Z,4212
2018-09-18T08:27:13.728Z,4220
2018-09-18T08:28:23.533Z,4232
2018-09-18T08:29:33.777Z,4256
2018-09-18T08:30:43.849Z,4256
2018-09-18T08:31:53.936Z,4280
2018-09-18T08:33:04.580Z,4292
2018-09-18T08:34:14.704Z,4304
2018-09-18T08:35:24.510Z,4336
2018-09-18T08:36:34.617Z,4344
2018-09-18T08:37:44.703Z,4368
2018-09-18T08:38:54.543Z,4384
2018-09-18T08:40:05.733Z,4400
2018-09-18T08:41:16.291Z,4420
2018-09-18T08:42:26.434Z,4428
2018-09-18T08:43:36.512Z,4444
2018-09-18T08:44:46.538Z,4456
2018-09-18T08:45:56.740Z,4484
2018-09-18T08:47:07.141Z,4492
2018-09-18T08:48:17.022Z,4500
2018-09-18T08:49:27.222Z,4520
2018-09-18T08:50:37.140Z,4520
2018-09-18T08:51:47.595Z,4516
2018-09-18T08:52:57.987Z,4548
2018-09-18T08:54:07.897Z,4576
2018-09-18T08:55:17.753Z,4600
2018-09-18T08:56:27.977Z,4584
2018-09-18T08:57:38.082Z,4632
2018-09-18T08:58:47.942Z,4624
2018-09-18T08:59:58.044Z,4628
2018-09-18T09:01:07.908Z,4660
2018-09-18T09:02:18.011Z,4652
2018-09-18T09:03:28.027Z,4652
2018-09-18T09:04:38.195Z,4696
2018-09-18T09:05:48.407Z,4704
2018-09-18T09:06:58.672Z,4680
2018-09-18T09:08:09.607Z,4724
2018-09-18T09:09:20.349Z,4732
2018-09-18T09:10:30.911Z,4720
2018-09-18T09:11:41.200Z,4712
2018-09-18T09:12:51.445Z,4760
2018-09-18T09:14:01.625Z,4788
2018-09-18T09:15:11.735Z,4792
2018-09-18T09:16:21.662Z,4808
2018-09-18T09:17:31.872Z,4772
2018-09-18T09:18:42.231Z,4824
2018-09-18T09:19:52.366Z,4836
2018-09-18T09:21:03.087Z,4848
2018-09-18T09:22:13.709Z,4880
2018-09-18T09:23:23.654Z,4860
2018-09-18T09:24:33.880Z,4908
2018-09-18T09:25:44.042Z,4880
2018-09-18T09:26:54.672Z,4908
2018-09-18T09:28:05.287Z,4944
2018-09-18T09:29:15.167Z,4968
2018-09-18T09:30:25.636Z,4944
2018-09-18T09:31:35.779Z,4984
2018-09-18T09:32:45.922Z,4972
2018-09-18T09:33:56.027Z,4984
2018-09-18T09:35:06.130Z,5008
2018-09-18T09:36:16.357Z,5040
2018-09-18T09:37:26.458Z,5032
2018-09-18T09:38:36.605Z,5040
2018-09-18T09:39:46.793Z,5036
2018-09-18T09:40:56.888Z,5048
2018-09-18T09:42:06.768Z,5060
2018-09-18T09:43:16.631Z,5068
2018-09-18T09:44:26.715Z,5060
2018-09-18T09:45:36.825Z,5060
2018-09-18T09:46:46.928Z,5104
2018-09-18T09:47:57.011Z,5216
2018-09-18T09:49:06.835Z,5192
2018-09-18T09:50:16.956Z,5252
2018-09-18T09:51:27.707Z,5248
2018-09-18T09:52:37.555Z,5244
2018-09-18T09:53:47.643Z,5188
2018-09-18T09:54:57.721Z,5140
2018-09-18T09:56:07.836Z,5152
2018-09-18T09:57:18.026Z,5144
2018-09-18T09:58:28.121Z,5144
2018-09-18T09:59:38.189Z,5152
2018-09-18T10:00:48.292Z,5124
2018-09-18T10:01:58.480Z,5132
2018-09-18T10:03:08.790Z,5144
2018-09-18T10:04:18.891Z,5144
2018-09-18T10:05:29.023Z,5160
2018-09-18T10:06:39.133Z,5176
2018-09-18T10:07:49.279Z,5188
2018-09-18T10:08:59.421Z,5180
2018-09-18T10:10:10.964Z,5220
2018-09-18T10:11:20.837Z,5204
2018-09-18T10:12:30.957Z,5232
2018-09-18T10:13:41.073Z,5228
2018-09-18T10:14:51.306Z,5236
2018-09-18T10:16:01.459Z,5256
2018-09-18T10:17:11.672Z,5236
2018-09-18T10:18:21.905Z,5268
2018-09-18T10:19:31.729Z,5264
2018-09-18T10:20:41.827Z,5300
2018-09-18T10:21:51.923Z,5240
2018-09-18T10:23:02.077Z,5288
2018-09-18T10:24:12.217Z,5260
2018-09-18T10:25:22.170Z,5248
2018-09-18T10:26:32.817Z,5292
2018-09-18T10:27:43.089Z,5276
2018-09-18T10:28:53.258Z,5284
2018-09-18T10:30:03.396Z,5288
2018-09-18T10:31:13.596Z,5280
2018-09-18T10:32:23.739Z,5300
2018-09-18T10:33:33.603Z,5312
2018-09-18T10:34:43.475Z,5312
2018-09-18T10:35:53.390Z,5296
2018-09-18T10:37:03.645Z,5320
2018-09-18T10:38:13.880Z,5328
2018-09-18T10:39:24.400Z,5324
2018-09-18T10:40:34.582Z,5312
2018-09-18T10:41:45.065Z,5340
2018-09-18T10:42:55.797Z,5364
2018-09-18T10:44:06.252Z,5344
2018-09-18T10:45:16.095Z,5348
2018-09-18T10:46:26.289Z,5368
2018-09-18T10:47:36.284Z,5308
2018-09-18T10:48:46.411Z,5364
2018-09-18T10:49:56.547Z,5324
2018-09-18T10:51:06.360Z,5352
2018-09-18T10:52:16.267Z,5364
2018-09-18T10:53:26.430Z,5348
2018-09-18T10:54:36.531Z,5396
2018-09-18T10:55:46.708Z,5408
2018-09-18T10:56:56.541Z,5416
2018-09-18T10:58:06.684Z,5416
2018-09-18T10:59:16.768Z,5440
2018-09-18T11:00:26.911Z,5424
2018-09-18T11:01:37.108Z,5452
2018-09-18T11:02:47.023Z,5440
2018-09-18T11:03:56.738Z,5440
2018-09-18T11:05:06.658Z,5432
2018-09-18T11:06:16.277Z,5476
2018-09-18T11:07:26.223Z,5480
2018-09-18T11:08:36.589Z,5492
2018-09-18T11:09:47.245Z,5508
2018-09-18T11:10:57.597Z,5548
2018-09-18T11:12:08.475Z,5536
2018-09-18T11:13:18.552Z,5576
2018-09-18T11:14:28.841Z,5584
2018-09-18T11:15:39.616Z,5604
2018-09-18T11:16:50.152Z,5616
2018-09-18T11:18:00.820Z,5612
2018-09-18T11:19:11.180Z,5616
2018-09-18T11:20:21.472Z,5632
2018-09-18T11:21:31.653Z,5640
2018-09-18T11:22:41.484Z,5612
2018-09-18T11:23:51.826Z,5608
2018-09-18T11:25:02.413Z,5684
2018-09-18T11:26:12.420Z,5680
2018-09-18T11:27:22.350Z,5716
2018-09-18T11:28:32.486Z,5740
2018-09-18T11:29:41.947Z,5732
2018-09-18T11:30:52.091Z,5704
2018-09-18T11:32:02.284Z,5772
2018-09-18T11:33:12.304Z,5732
2018-09-18T11:34:22.478Z,5784
2018-09-18T11:35:32.569Z,5788
2018-09-18T11:36:42.645Z,5808
2018-09-18T11:37:52.781Z,5856
2018-09-18T11:39:02.927Z,5804
2018-09-18T11:40:13.015Z,5836
2018-09-18T11:41:23.092Z,5796
2018-09-18T11:42:33.176Z,5816
2018-09-18T11:43:43.269Z,5856
2018-09-18T11:44:53.360Z,5836
2018-09-18T11:46:04.885Z,5812
2018-09-18T11:47:14.812Z,5852
2018-09-18T11:48:24.642Z,5860
2018-09-18T11:49:34.748Z,5860
2018-09-18T11:50:44.354Z,5892
2018-09-18T11:51:54.426Z,5896
2018-09-18T11:53:04.696Z,5956
2018-09-18T11:54:14.918Z,5968
2018-09-18T11:55:25.007Z,5988
2018-09-18T11:56:35.137Z,6000
2018-09-18T11:57:44.690Z,5972
2018-09-18T11:58:54.769Z,5976
2018-09-18T12:00:04.596Z,6000
2018-09-18T12:01:14.699Z,6032
2018-09-18T12:02:24.789Z,6076
2018-09-18T12:03:34.620Z,6072
2018-09-18T12:04:45.372Z,6048
2018-09-18T12:05:55.667Z,6092
2018-09-18T12:07:05.500Z,6116
2018-09-18T12:08:15.609Z,6124
2018-09-18T12:09:25.723Z,6140
2018-09-18T12:10:35.571Z,6160
2018-09-18T12:11:45.671Z,6140
2018-09-18T12:12:55.770Z,6152
2018-09-18T12:14:05.855Z,6136
2018-09-18T12:15:15.687Z,6128
2018-09-18T12:16:25.772Z,6116
2018-09-18T12:17:35.856Z,6112
2018-09-18T12:18:45.955Z,6128
2018-09-18T12:19:55.783Z,6100
2018-09-18T12:21:05.624Z,6112
2018-09-18T12:22:16.083Z,6056
2018-09-18T12:23:26.010Z,6080
2018-09-18T12:24:36.115Z,6084
2018-09-18T12:25:46.187Z,6104
2018-09-18T12:26:56.034Z,6080
2018-09-18T12:28:08.371Z,6012
2018-09-18T12:29:17.935Z,6024
2018-09-18T12:30:27.760Z,5996
2018-09-18T12:31:37.918Z,5952
2018-09-18T12:32:48.008Z,5936
2018-09-18T12:33:57.910Z,5908
2018-09-18T12:35:08.066Z,5880
2018-09-18T12:36:18.215Z,5832
2018-09-18T12:37:28.038Z,5744
2018-09-18T12:38:38.118Z,5724
2018-09-18T12:39:48.215Z,5676
2018-09-18T12:40:58.311Z,5564
2018-09-18T12:42:09.476Z,5612
2018-09-18T12:43:19.734Z,5560
2018-09-18T12:44:29.829Z,5560
2018-09-18T12:45:39.951Z,5560
2018-09-18T12:46:50.108Z,5536
2018-09-18T12:48:03.270Z,5488
2018-09-18T12:49:14.024Z,5480
2018-09-18T12:50:25.352Z,5376
2018-09-18T12:51:35.673Z,5440
2018-09-18T12:52:45.761Z,5424
2018-09-18T12:53:56.484Z,5396
2018-09-18T12:55:06.654Z,5332
2018-09-18T12:56:17.204Z,5364
2018-09-18T12:57:27.986Z,5332
2018-09-18T12:58:38.810Z,5336
2018-09-18T12:59:49.467Z,5304
2018-09-18T13:00:59.902Z,5304
2018-09-18T13:02:09.797Z,5284
2018-09-18T13:03:19.659Z,5232
2018-09-18T13:04:29.757Z,5228
2018-09-18T13:05:39.902Z,5240
2018-09-18T13:06:49.927Z,5220
2018-09-18T13:08:00.368Z,5200
2018-09-18T13:09:10.617Z,5188
2018-09-18T13:10:20.852Z,5172
2018-09-18T13:11:30.977Z,5152
2018-09-18T13:12:41.208Z,5168
2018-09-18T13:13:51.482Z,5144
2018-09-18T13:15:01.677Z,5176
2018-09-18T13:16:11.859Z,5168
2018-09-18T13:17:22.254Z,5148
2018-09-18T13:18:32.488Z,5108
2018-09-18T13:19:42.573Z,5088
2018-09-18T13:20:52.690Z,5096
2018-09-18T13:22:02.566Z,5020
2018-09-18T13:23:12.753Z,5032
2018-09-18T13:24:22.851Z,5004
2018-09-18T13:25:32.971Z,4972
2018-09-18T13:26:43.086Z,4972
2018-09-18T13:27:53.239Z,4984
2018-09-18T13:29:03.798Z,4944
2018-09-18T13:30:14.003Z,4968
2018-09-18T13:31:24.145Z,4896
2018-09-18T13:32:34.099Z,4952
2018-09-18T13:33:44.020Z,4876
2018-09-18T13:34:54.101Z,4868
2018-09-18T13:36:04.194Z,4852
2018-09-18T13:37:14.305Z,4812
2018-09-18T13:38:24.439Z,4828
2018-09-18T13:39:34.561Z,4736
2018-09-18T13:40:44.904Z,4792
2018-09-18T13:41:55.210Z,4756
2018-09-18T13:43:05.339Z,4752
2018-09-18T13:44:15.471Z,4728
2018-09-18T13:45:25.567Z,4688
2018-09-18T13:46:35.430Z,4700
2018-09-18T13:47:45.329Z,4664
2018-09-18T13:48:55.171Z,4672
2018-09-18T13:50:05.259Z,4640
2018-09-18T13:51:15.429Z,4648
2018-09-18T13:52:25.588Z,4632
2018-09-18T13:53:35.704Z,4600
2018-09-18T13:54:45.801Z,4584
2018-09-18T13:55:55.957Z,4560
2018-09-18T13:57:06.114Z,4516
2018-09-18T13:58:15.953Z,4484
2018-09-18T13:59:26.255Z,4500
2018-09-18T14:00:36.426Z,4464
2018-09-18T14:01:47.868Z,4416
2018-09-18T14:02:58.327Z,4416
2018-09-18T14:04:08.589Z,4388
2018-09-18T14:05:18.711Z,4328
2018-09-18T14:06:28.567Z,4312
2018-09-18T14:10:16.614Z,4276
2018-09-18T14:11:26.196Z,4264
2018-09-18T14:12:36.297Z,4220
2018-09-18T14:13:46.137Z,4204
2018-09-18T14:14:56.857Z,4152
2018-09-18T14:16:07.316Z,4132
2018-09-18T14:17:17.137Z,4108
2018-09-18T14:18:27.258Z,4088
2018-09-18T14:19:37.097Z,4052
2018-09-18T14:20:47.236Z,4040
2018-09-18T14:21:57.123Z,4044
2018-09-18T14:23:07.318Z,4040
2018-09-18T14:24:17.419Z,3992
2018-09-18T14:25:27.596Z,3956
2018-09-18T14:26:38.797Z,3924
2018-09-18T14:27:48.470Z,3940
2018-09-18T14:28:58.733Z,3932
2018-09-18T14:30:10.786Z,3920
2018-09-18T14:31:20.895Z,3860
2018-09-18T14:32:31.351Z,3840
2018-09-18T14:33:41.510Z,3856
2018-09-18T14:34:51.961Z,3820
2018-09-18T14:36:02.365Z,3780
2018-09-18T14:37:12.491Z,3756
2018-09-18T14:38:22.507Z,3736
2018-09-18T14:39:32.810Z,3724
2018-09-18T14:40:43.191Z,3688
2018-09-18T14:41:53.011Z,3668
2018-09-18T14:43:02.577Z,3640
2018-09-18T14:44:12.406Z,3628
2018-09-18T14:45:22.848Z,3604
2018-09-18T14:46:33.033Z,3580
2018-09-18T14:47:43.259Z,3544
2018-09-18T14:48:53.553Z,3532
2018-09-18T14:50:05.756Z,3508
2018-09-18T14:51:16.484Z,3448
2018-09-18T14:52:26.965Z,3408
2018-09-18T14:53:36.783Z,3372
2018-09-18T14:54:46.618Z,3340
2018-09-18T14:55:56.696Z,3328
2018-09-18T14:57:07.741Z,3300
2018-09-18T14:58:17.831Z,3236
2018-09-18T14:59:27.952Z,3200
2018-09-18T15:00:38.063Z,3180
2018-09-18T15:01:48.169Z,3144
2018-09-18T15:02:58.263Z,3120
2018-09-18T15:04:09.074Z,3096
2018-09-18T15:05:19.207Z,3072
2018-09-18T15:06:29.294Z,3040
2018-09-18T15:07:39.408Z,3020
2018-09-18T15:08:49.559Z,2996
2018-09-18T15:09:59.771Z,2968
2018-09-18T15:11:09.897Z,2936
2018-09-18T15:12:20.032Z,2916
2018-09-18T15:13:30.141Z,2880
2018-09-18T15:14:40.478Z,2856
2018-09-18T15:15:50.681Z,2856
2018-09-18T15:17:00.823Z,2832
2018-09-18T15:18:10.650Z,2804
2018-09-18T15:19:20.769Z,2784
2018-09-18T15:20:30.855Z,2744
2018-09-18T15:21:41.499Z,2744
2018-09-18T15:22:51.367Z,2716
2018-09-18T15:24:01.463Z,2680
2018-09-18T15:25:11.544Z,2652
2018-09-18T15:26:21.469Z,2624
2018-09-18T15:27:31.487Z,2584
2018-09-18T15:28:41.769Z,2556
2018-09-18T15:29:51.879Z,2520
2018-09-18T15:31:02.024Z,2504
2018-09-18T15:32:12.453Z,2488
2018-09-18T15:33:22.765Z,2448
2018-09-18T15:34:32.887Z,2424
2018-09-18T15:35:42.990Z,2392
2018-09-18T15:36:53.141Z,2356
2018-09-18T15:38:05.481Z,2312
2018-09-18T15:39:15.318Z,2272
2018-09-18T15:40:25.172Z,2228
2018-09-18T15:41:35.288Z,2204
2018-09-18T15:42:45.400Z,2180
2018-09-18T15:43:55.320Z,2128
2018-09-18T15:45:06.426Z,2096
2018-09-18T15:46:16.424Z,2056
2018-09-18T15:47:26.669Z,2012
2018-09-18T15:48:37.255Z,1968
2018-09-18T15:49:47.484Z,1932
2018-09-18T15:50:57.368Z,1892
2018-09-18T15:52:08.141Z,1836
2018-09-18T15:53:18.429Z,1800
2018-09-18T15:54:28.541Z,1760
2018-09-18T15:55:38.711Z,1724
2018-09-18T15:56:48.537Z,1688
2018-09-18T15:57:59.354Z,1656
2018-09-18T15:59:09.291Z,1620
2018-09-18T16:00:19.487Z,1592
2018-09-18T16:01:29.939Z,1556
2018-09-18T16:02:40.231Z,1520
2018-09-18T16:03:50.611Z,1488
2018-09-18T16:05:00.910Z,1448
2018-09-18T16:06:10.495Z,1408
2018-09-18T16:07:20.594Z,1372
2018-09-18T16:08:30.708Z,1340
2018-09-18T16:09:40.976Z,1304
2018-09-18T16:10:51.152Z,1264
2018-09-18T16:12:01.260Z,1228
2018-09-18T16:13:11.093Z,1196
2018-09-18T16:14:20.788Z,1164
2018-09-18T16:15:31.271Z,1128
2018-09-18T16:16:41.655Z,1096
2018-09-18T16:17:52.026Z,1064
2018-09-18T16:19:02.183Z,1032
2018-09-18T16:20:12.373Z,996
2018-09-18T16:21:22.477Z,968
2018-09-18T16:22:32.781Z,936
2018-09-18T16:23:42.895Z,904
2018-09-18T16:24:53.329Z,872
2018-09-18T16:26:03.609Z,840
2018-09-18T16:27:13.805Z,808
2018-09-18T16:28:23.637Z,780
2018-09-18T16:29:33.827Z,748
2018-09-18T16:30:43.761Z,720
2018-09-18T16:31:53.497Z,688
2018-09-18T16:33:03.659Z,660